sensor_id;sensor_type;location;lat;lon;timestamp;P1;durP1;ratioP1;P2;durP2;ratioP2
4272;SDS011;63887;53.656;9.810;2023-04-01T00:01:32;21.00;;;11.90;;
4272;SDS011;63887;53.656;9.810;2023-04-01T00:03:58;16.03;;;12.47;;
4272;SDS011;63887;53.656;9.810;2023-04-01T00:06:27;14.63;;;11.83;;
4272;SDS011;63887;53.656;9.810;2023-04-01T00:08:55;15.80;;;12.80;;
4272;SDS011;63887;53.656;9.810;2023-04-01T00:11:21;24.27;;;12.87;;
4272;SDS011;63887;53.656;9.810;2023-04-01T00:13:48;19.80;;;12.17;;
4272;SDS011;63887;53.656;9.810;2023-04-01T00:16:14;22.63;;;14.37;;
4272;SDS011;63887;53.656;9.810;2023-04-01T00:18:41;18.43;;;12.57;;
4272;SDS011;63887;53.656;9.810;2023-04-01T00:21:07;14.93;;;12.63;;
4272;SDS011;63887;53.656;9.810;2023-04-01T00:23:34;14.53;;;12.57;;
4272;SDS011;63887;53.656;9.810;2023-04-01T00:26:02;20.37;;;12.17;;
4272;SDS011;63887;53.656;9.810;2023-04-01T00:28:30;20.27;;;12.90;;
4272;SDS011;63887;53.656;9.810;2023-04-01T00:30:56;26.00;;;13.60;;
4272;SDS011;63887;53.656;9.810;2023-04-01T00:33:23;15.40;;;12.43;;
4272;SDS011;63887;53.656;9.810;2023-04-01T00:35:49;22.47;;;15.30;;
4272;SDS011;63887;53.656;9.810;2023-04-01T00:38:16;21.90;;;13.50;;
4272;SDS011;63887;53.656;9.810;2023-04-01T00:40:44;20.17;;;13.10;;
4272;SDS011;63887;53.656;9.810;2023-04-01T00:43:14;21.60;;;13.87;;
4272;SDS011;63887;53.656;9.810;2023-04-01T00:45:43;18.10;;;13.70;;
4272;SDS011;63887;53.656;9.810;2023-04-01T00:48:11;21.77;;;13.10;;
4272;SDS011;63887;53.656;9.810;2023-04-01T00:50:42;24.10;;;13.70;;
4272;SDS011;63887;53.656;9.810;2023-04-01T00:53:12;19.30;;;14.20;;
4272;SDS011;63887;53.656;9.810;2023-04-01T00:55:41;17.43;;;13.67;;
4272;SDS011;63887;53.656;9.810;2023-04-01T00:58:11;15.50;;;13.10;;
4272;SDS011;63887;53.656;9.810;2023-04-01T01:00:43;17.53;;;14.40;;
4272;SDS011;63887;53.656;9.810;2023-04-01T01:03:12;25.70;;;13.20;;
4272;SDS011;63887;53.656;9.810;2023-04-01T01:05:44;17.40;;;12.83;;
4272;SDS011;63887;53.656;9.810;2023-04-01T01:08:35;15.80;;;13.93;;
4272;SDS011;63887;53.656;9.810;2023-04-01T01:11:13;19.47;;;13.17;;
4272;SDS011;63887;53.656;9.810;2023-04-01T01:13:48;24.73;;;14.57;;
4272;SDS011;63887;53.656;9.810;2023-04-01T01:16:23;25.80;;;15.20;;
4272;SDS011;63887;53.656;9.810;2023-04-01T01:18:53;23.30;;;14.43;;
4272;SDS011;63887;53.656;9.810;2023-04-01T01:21:30;20.43;;;13.67;;
4272;SDS011;63887;53.656;9.810;2023-04-01T01:24:28;14.53;;;12.60;;
4272;SDS011;63887;53.656;9.810;2023-04-01T01:27:06;21.43;;;13.30;;
4272;SDS011;63887;53.656;9.810;2023-04-01T01:35:40;25.33;;;13.90;;
4272;SDS011;63887;53.656;9.810;2023-04-01T01:38:13;13.70;;;12.40;;
4272;SDS011;63887;53.656;9.810;2023-04-01T01:40:43;22.67;;;14.07;;
4272;SDS011;63887;53.656;9.810;2023-04-01T01:43:15;17.90;;;13.57;;
4272;SDS011;63887;53.656;9.810;2023-04-01T01:45:44;21.83;;;14.97;;
4272;SDS011;63887;53.656;9.810;2023-04-01T01:48:14;19.73;;;13.77;;
4272;SDS011;63887;53.656;9.810;2023-04-01T01:50:43;19.00;;;13.77;;
4272;SDS011;63887;53.656;9.810;2023-04-01T01:53:12;24.40;;;15.47;;
4272;SDS011;63887;53.656;9.810;2023-04-01T01:55:40;23.37;;;13.83;;
4272;SDS011;63887;53.656;9.810;2023-04-01T01:58:09;16.20;;;13.63;;
4272;SDS011;63887;53.656;9.810;2023-04-01T02:00:40;19.47;;;14.00;;
4272;SDS011;63887;53.656;9.810;2023-04-01T02:03:09;23.53;;;13.60;;
4272;SDS011;63887;53.656;9.810;2023-04-01T02:05:38;23.23;;;14.77;;
4272;SDS011;63887;53.656;9.810;2023-04-01T02:08:07;18.80;;;13.93;;
4272;SDS011;63887;53.656;9.810;2023-04-01T02:10:39;16.33;;;14.73;;
4272;SDS011;63887;53.656;9.810;2023-04-01T02:13:11;14.03;;;12.40;;
4272;SDS011;63887;53.656;9.810;2023-04-01T02:15:42;24.13;;;13.90;;
4272;SDS011;63887;53.656;9.810;2023-04-01T02:18:14;24.90;;;13.73;;
4272;SDS011;63887;53.656;9.810;2023-04-01T02:20:41;23.73;;;13.13;;
4272;SDS011;63887;53.656;9.810;2023-04-01T02:23:11;25.17;;;13.63;;
4272;SDS011;63887;53.656;9.810;2023-04-01T02:25:39;16.47;;;13.23;;
4272;SDS011;63887;53.656;9.810;2023-04-01T02:28:07;18.53;;;12.53;;
4272;SDS011;63887;53.656;9.810;2023-04-01T02:30:36;22.93;;;12.83;;
4272;SDS011;63887;53.656;9.810;2023-04-01T02:33:05;17.27;;;12.83;;
4272;SDS011;63887;53.656;9.810;2023-04-01T02:35:32;30.10;;;14.67;;
4272;SDS011;63887;53.656;9.810;2023-04-01T02:37:59;23.17;;;13.20;;
4272;SDS011;63887;53.656;9.810;2023-04-01T02:40:28;18.60;;;11.87;;
4272;SDS011;63887;53.656;9.810;2023-04-01T02:42:54;17.37;;;11.93;;
4272;SDS011;63887;53.656;9.810;2023-04-01T02:45:21;21.20;;;12.07;;
4272;SDS011;63887;53.656;9.810;2023-04-01T02:47:47;14.80;;;12.97;;
4272;SDS011;63887;53.656;9.810;2023-04-01T02:50:14;26.20;;;13.40;;
4272;SDS011;63887;53.656;9.810;2023-04-01T02:52:40;20.10;;;11.70;;
4272;SDS011;63887;53.656;9.810;2023-04-01T02:55:07;16.50;;;11.83;;
4272;SDS011;63887;53.656;9.810;2023-04-01T02:57:35;17.33;;;13.33;;
4272;SDS011;63887;53.656;9.810;2023-04-01T03:00:02;17.60;;;12.67;;
4272;SDS011;63887;53.656;9.810;2023-04-01T03:02:29;18.30;;;12.53;;
4272;SDS011;63887;53.656;9.810;2023-04-01T03:04:55;20.50;;;12.20;;
4272;SDS011;63887;53.656;9.810;2023-04-01T03:07:22;20.67;;;12.80;;
4272;SDS011;63887;53.656;9.810;2023-04-01T03:09:49;20.80;;;12.20;;
4272;SDS011;63887;53.656;9.810;2023-04-01T03:12:15;23.03;;;13.37;;
4272;SDS011;63887;53.656;9.810;2023-04-01T03:14:43;32.07;;;13.73;;
4272;SDS011;63887;53.656;9.810;2023-04-01T03:17:09;17.13;;;13.27;;
4272;SDS011;63887;53.656;9.810;2023-04-01T03:19:36;24.53;;;13.10;;
4272;SDS011;63887;53.656;9.810;2023-04-01T03:22:02;15.10;;;11.97;;
4272;SDS011;63887;53.656;9.810;2023-04-01T03:24:28;18.87;;;12.97;;
4272;SDS011;63887;53.656;9.810;2023-04-01T03:26:55;18.37;;;12.07;;
4272;SDS011;63887;53.656;9.810;2023-04-01T03:29:21;14.87;;;12.27;;
4272;SDS011;63887;53.656;9.810;2023-04-01T03:31:49;15.43;;;12.53;;
4272;SDS011;63887;53.656;9.810;2023-04-01T03:34:15;21.40;;;12.53;;
4272;SDS011;63887;53.656;9.810;2023-04-01T03:36:42;26.50;;;11.83;;
4272;SDS011;63887;53.656;9.810;2023-04-01T03:39:08;15.60;;;12.23;;
4272;SDS011;63887;53.656;9.810;2023-04-01T03:41:35;21.13;;;13.73;;
4272;SDS011;63887;53.656;9.810;2023-04-01T03:44:02;18.87;;;12.17;;
4272;SDS011;63887;53.656;9.810;2023-04-01T03:46:28;18.50;;;12.23;;
4272;SDS011;63887;53.656;9.810;2023-04-01T03:48:56;16.53;;;11.37;;
4272;SDS011;63887;53.656;9.810;2023-04-01T03:51:23;15.47;;;11.13;;
4272;SDS011;63887;53.656;9.810;2023-04-01T03:53:49;17.73;;;12.53;;
4272;SDS011;63887;53.656;9.810;2023-04-01T03:56:15;16.90;;;12.40;;
4272;SDS011;63887;53.656;9.810;2023-04-01T03:58:42;15.57;;;11.83;;
4272;SDS011;63887;53.656;9.810;2023-04-01T04:01:15;17.23;;;12.03;;
4272;SDS011;63887;53.656;9.810;2023-04-01T04:03:43;14.57;;;10.90;;
4272;SDS011;63887;53.656;9.810;2023-04-01T04:06:12;17.20;;;12.67;;
4272;SDS011;63887;53.656;9.810;2023-04-01T04:08:39;14.17;;;10.20;;
4272;SDS011;63887;53.656;9.810;2023-04-01T04:11:06;16.17;;;11.17;;
4272;SDS011;63887;53.656;9.810;2023-04-01T04:13:33;14.50;;;11.20;;
4272;SDS011;63887;53.656;9.810;2023-04-01T04:16:00;15.93;;;11.60;;
4272;SDS011;63887;53.656;9.810;2023-04-01T04:18:27;13.60;;;12.13;;
4272;SDS011;63887;53.656;9.810;2023-04-01T04:20:54;18.27;;;12.03;;
4272;SDS011;63887;53.656;9.810;2023-04-01T04:23:22;16.57;;;11.40;;
4272;SDS011;63887;53.656;9.810;2023-04-01T04:25:53;13.30;;;11.90;;
4272;SDS011;63887;53.656;9.810;2023-04-01T04:28:20;18.00;;;12.13;;
4272;SDS011;63887;53.656;9.810;2023-04-01T04:30:47;11.87;;;10.57;;
4272;SDS011;63887;53.656;9.810;2023-04-01T04:33:13;11.33;;;9.50;;
4272;SDS011;63887;53.656;9.810;2023-04-01T04:35:40;8.57;;;7.93;;
4272;SDS011;63887;53.656;9.810;2023-04-01T04:38:06;7.80;;;7.47;;
4272;SDS011;63887;53.656;9.810;2023-04-01T04:40:34;6.87;;;6.57;;
4272;SDS011;63887;53.656;9.810;2023-04-01T04:43:01;7.10;;;6.90;;
4272;SDS011;63887;53.656;9.810;2023-04-01T04:45:28;6.80;;;6.60;;
4272;SDS011;63887;53.656;9.810;2023-04-01T04:47:55;6.87;;;6.77;;
4272;SDS011;63887;53.656;9.810;2023-04-01T04:50:22;6.23;;;5.90;;
4272;SDS011;63887;53.656;9.810;2023-04-01T04:52:50;6.83;;;6.53;;
4272;SDS011;63887;53.656;9.810;2023-04-01T04:55:17;7.07;;;6.63;;
4272;SDS011;63887;53.656;9.810;2023-04-01T04:57:44;6.70;;;6.50;;
4272;SDS011;63887;53.656;9.810;2023-04-01T05:00:11;6.10;;;5.90;;
4272;SDS011;63887;53.656;9.810;2023-04-01T05:02:38;7.57;;;7.17;;
4272;SDS011;63887;53.656;9.810;2023-04-01T05:05:05;8.13;;;7.63;;
4272;SDS011;63887;53.656;9.810;2023-04-01T05:07:32;7.90;;;7.60;;
4272;SDS011;63887;53.656;9.810;2023-04-01T05:09:59;7.07;;;6.77;;
4272;SDS011;63887;53.656;9.810;2023-04-01T05:12:25;7.13;;;6.80;;
4272;SDS011;63887;53.656;9.810;2023-04-01T05:14:53;7.40;;;7.10;;
4272;SDS011;63887;53.656;9.810;2023-04-01T05:17:20;7.30;;;7.00;;
4272;SDS011;63887;53.656;9.810;2023-04-01T05:19:46;7.67;;;7.37;;
4272;SDS011;63887;53.656;9.810;2023-04-01T05:22:13;7.20;;;6.90;;
4272;SDS011;63887;53.656;9.810;2023-04-01T05:24:39;7.73;;;7.23;;
4272;SDS011;63887;53.656;9.810;2023-04-01T05:27:05;7.17;;;7.07;;
4272;SDS011;63887;53.656;9.810;2023-04-01T05:29:32;6.87;;;6.67;;
4272;SDS011;63887;53.656;9.810;2023-04-01T05:32:01;5.87;;;5.77;;
4272;SDS011;63887;53.656;9.810;2023-04-01T05:34:27;6.77;;;6.67;;
4272;SDS011;63887;53.656;9.810;2023-04-01T05:36:54;7.00;;;6.90;;
4272;SDS011;63887;53.656;9.810;2023-04-01T05:39:20;5.80;;;5.70;;
4272;SDS011;63887;53.656;9.810;2023-04-01T05:41:47;7.00;;;6.80;;
4272;SDS011;63887;53.656;9.810;2023-04-01T05:44:13;6.63;;;6.50;;
4272;SDS011;63887;53.656;9.810;2023-04-01T05:46:40;6.90;;;6.80;;
4272;SDS011;63887;53.656;9.810;2023-04-01T05:49:08;7.13;;;6.93;;
4272;SDS011;63887;53.656;9.810;2023-04-01T05:51:34;7.67;;;7.17;;
4272;SDS011;63887;53.656;9.810;2023-04-01T05:54:00;6.63;;;6.53;;
4272;SDS011;63887;53.656;9.810;2023-04-01T05:56:27;6.70;;;6.60;;
4272;SDS011;63887;53.656;9.810;2023-04-01T05:58:54;6.70;;;6.60;;
4272;SDS011;63887;53.656;9.810;2023-04-01T06:01:20;7.53;;;7.33;;
4272;SDS011;63887;53.656;9.810;2023-04-01T06:03:47;6.77;;;6.57;;
4272;SDS011;63887;53.656;9.810;2023-04-01T06:06:15;5.80;;;5.70;;
4272;SDS011;63887;53.656;9.810;2023-04-01T06:08:46;6.10;;;6.00;;
4272;SDS011;63887;53.656;9.810;2023-04-01T06:11:16;6.57;;;6.37;;
4272;SDS011;63887;53.656;9.810;2023-04-01T06:13:53;5.80;;;5.70;;
4272;SDS011;63887;53.656;9.810;2023-04-01T06:16:32;5.33;;;5.27;;
4272;SDS011;63887;53.656;9.810;2023-04-01T06:19:17;5.80;;;5.70;;
4272;SDS011;63887;53.656;9.810;2023-04-01T06:22:00;5.90;;;5.80;;
4272;SDS011;63887;53.656;9.810;2023-04-01T06:24:52;5.53;;;5.23;;
4272;SDS011;63887;53.656;9.810;2023-04-01T06:27:36;6.40;;;6.30;;
4272;SDS011;63887;53.656;9.810;2023-04-01T06:30:29;5.57;;;5.47;;
4272;SDS011;63887;53.656;9.810;2023-04-01T06:33:04;6.27;;;6.17;;
4272;SDS011;63887;53.656;9.810;2023-04-01T06:35:49;6.20;;;6.10;;
4272;SDS011;63887;53.656;9.810;2023-04-01T06:38:34;6.07;;;5.97;;
4272;SDS011;63887;53.656;9.810;2023-04-01T06:41:11;8.30;;;5.90;;
4272;SDS011;63887;53.656;9.810;2023-04-01T06:43:52;6.60;;;6.40;;
4272;SDS011;63887;53.656;9.810;2023-04-01T06:46:29;6.20;;;6.10;;
4272;SDS011;63887;53.656;9.810;2023-04-01T06:49:19;5.90;;;5.80;;
4272;SDS011;63887;53.656;9.810;2023-04-01T06:51:55;6.63;;;6.43;;
4272;SDS011;63887;53.656;9.810;2023-04-01T06:54:33;6.20;;;6.00;;
4272;SDS011;63887;53.656;9.810;2023-04-01T06:57:03;6.40;;;6.27;;
4272;SDS011;63887;53.656;9.810;2023-04-01T06:59:39;6.20;;;6.10;;
4272;SDS011;63887;53.656;9.810;2023-04-01T07:02:12;6.60;;;6.17;;
4272;SDS011;63887;53.656;9.810;2023-04-01T07:04:48;5.23;;;5.13;;
4272;SDS011;63887;53.656;9.810;2023-04-01T07:07:21;6.13;;;6.03;;
4272;SDS011;63887;53.656;9.810;2023-04-01T07:09:56;5.53;;;5.43;;
4272;SDS011;63887;53.656;9.810;2023-04-01T07:12:29;6.03;;;5.93;;
4272;SDS011;63887;53.656;9.810;2023-04-01T07:15:03;5.37;;;5.07;;
4272;SDS011;63887;53.656;9.810;2023-04-01T07:17:38;6.10;;;6.00;;
4272;SDS011;63887;53.656;9.810;2023-04-01T07:20:10;6.00;;;5.90;;
4272;SDS011;63887;53.656;9.810;2023-04-01T07:22:42;6.20;;;5.83;;
4272;SDS011;63887;53.656;9.810;2023-04-01T07:25:13;6.20;;;6.00;;
4272;SDS011;63887;53.656;9.810;2023-04-01T07:27:41;6.53;;;6.13;;
4272;SDS011;63887;53.656;9.810;2023-04-01T07:30:13;5.50;;;5.10;;
4272;SDS011;63887;53.656;9.810;2023-04-01T07:32:42;5.47;;;5.37;;
4272;SDS011;63887;53.656;9.810;2023-04-01T07:35:16;6.20;;;6.00;;
4272;SDS011;63887;53.656;9.810;2023-04-01T07:38:03;6.00;;;5.80;;
4272;SDS011;63887;53.656;9.810;2023-04-01T07:40:41;5.70;;;5.60;;
4272;SDS011;63887;53.656;9.810;2023-04-01T07:43:18;5.60;;;5.40;;
4272;SDS011;63887;53.656;9.810;2023-04-01T07:45:59;7.43;;;5.73;;
4272;SDS011;63887;53.656;9.810;2023-04-01T07:48:35;5.72;;;5.63;;
4272;SDS011;63887;53.656;9.810;2023-04-01T07:51:08;5.90;;;5.80;;
4272;SDS011;63887;53.656;9.810;2023-04-01T07:53:41;5.83;;;5.70;;
4272;SDS011;63887;53.656;9.810;2023-04-01T07:56:14;6.60;;;6.30;;
4272;SDS011;63887;53.656;9.810;2023-04-01T07:58:49;6.07;;;5.97;;
4272;SDS011;63887;53.656;9.810;2023-04-01T08:01:27;6.13;;;6.03;;
4272;SDS011;63887;53.656;9.810;2023-04-01T08:04:04;6.33;;;6.13;;
4272;SDS011;63887;53.656;9.810;2023-04-01T08:06:43;7.00;;;6.50;;
4272;SDS011;63887;53.656;9.810;2023-04-01T08:09:15;5.87;;;5.57;;
4272;SDS011;63887;53.656;9.810;2023-04-01T08:11:56;9.37;;;5.77;;
4272;SDS011;63887;53.656;9.810;2023-04-01T08:14:32;6.63;;;6.43;;
4272;SDS011;63887;53.656;9.810;2023-04-01T08:17:10;6.17;;;5.97;;
4272;SDS011;63887;53.656;9.810;2023-04-01T08:19:48;6.68;;;6.35;;
4272;SDS011;63887;53.656;9.810;2023-04-01T08:22:29;6.40;;;6.30;;
4272;SDS011;63887;53.656;9.810;2023-04-01T08:25:01;5.30;;;5.20;;
4272;SDS011;63887;53.656;9.810;2023-04-01T08:27:34;5.70;;;5.45;;
4272;SDS011;63887;53.656;9.810;2023-04-01T08:30:06;5.53;;;5.43;;
4272;SDS011;63887;53.656;9.810;2023-04-01T08:32:44;6.30;;;6.20;;
4272;SDS011;63887;53.656;9.810;2023-04-01T08:35:16;5.85;;;5.75;;
4272;SDS011;63887;53.656;9.810;2023-04-01T08:37:50;5.78;;;5.63;;
4272;SDS011;63887;53.656;9.810;2023-04-01T08:40:29;7.10;;;5.70;;
4272;SDS011;63887;53.656;9.810;2023-04-01T08:43:08;5.72;;;5.53;;
4272;SDS011;63887;53.656;9.810;2023-04-01T08:45:44;5.78;;;5.60;;
4272;SDS011;63887;53.656;9.810;2023-04-01T08:48:28;5.68;;;5.57;;
4272;SDS011;63887;53.656;9.810;2023-04-01T08:51:09;5.90;;;5.80;;
4272;SDS011;63887;53.656;9.810;2023-04-01T08:53:51;5.72;;;5.43;;
4272;SDS011;63887;53.656;9.810;2023-04-01T08:56:30;6.00;;;5.90;;
4272;SDS011;63887;53.656;9.810;2023-04-01T08:59:11;5.38;;;5.35;;
4272;SDS011;63887;53.656;9.810;2023-04-01T09:05:03;5.70;;;5.60;;
4272;SDS011;63887;53.656;9.810;2023-04-01T09:07:49;5.37;;;5.27;;
4272;SDS011;63887;53.656;9.810;2023-04-01T09:10:42;6.60;;;6.40;;
4272;SDS011;63887;53.656;9.810;2023-04-01T09:13:35;5.83;;;5.73;;
4272;SDS011;63887;53.656;9.810;2023-04-01T09:16:18;6.00;;;5.90;;
4272;SDS011;63887;53.656;9.810;2023-04-01T09:19:11;5.55;;;5.47;;
4272;SDS011;63887;53.656;9.810;2023-04-01T09:24:40;5.70;;;5.60;;
4272;SDS011;63887;53.656;9.810;2023-04-01T09:27:19;6.15;;;6.05;;
4272;SDS011;63887;53.656;9.810;2023-04-01T09:33:10;6.57;;;6.38;;
4272;SDS011;63887;53.656;9.810;2023-04-01T09:36:03;4.90;;;4.90;;
4272;SDS011;63887;53.656;9.810;2023-04-01T09:38:36;5.38;;;5.28;;
4272;SDS011;63887;53.656;9.810;2023-04-01T09:41:15;5.57;;;5.27;;
4272;SDS011;63887;53.656;9.810;2023-04-01T09:44:03;5.53;;;5.43;;
4272;SDS011;63887;53.656;9.810;2023-04-01T09:46:42;5.73;;;5.63;;
4272;SDS011;63887;53.656;9.810;2023-04-01T09:49:35;5.38;;;5.28;;
4272;SDS011;63887;53.656;9.810;2023-04-01T09:52:17;6.07;;;5.80;;
4272;SDS011;63887;53.656;9.810;2023-04-01T09:54:56;5.33;;;5.23;;
4272;SDS011;63887;53.656;9.810;2023-04-01T10:00:29;5.80;;;5.70;;
4272;SDS011;63887;53.656;9.810;2023-04-01T10:06:14;5.50;;;5.40;;
4272;SDS011;63887;53.656;9.810;2023-04-01T10:12:33;5.07;;;4.85;;
4272;SDS011;63887;53.656;9.810;2023-04-01T10:15:26;5.50;;;5.40;;
4272;SDS011;63887;53.656;9.810;2023-04-01T10:18:23;5.53;;;5.22;;
4272;SDS011;63887;53.656;9.810;2023-04-01T10:21:29;5.90;;;5.80;;
4272;SDS011;63887;53.656;9.810;2023-04-01T10:24:26;4.80;;;4.80;;
4272;SDS011;63887;53.656;9.810;2023-04-01T10:30:24;5.90;;;5.70;;
4272;SDS011;63887;53.656;9.810;2023-04-01T10:33:28;4.83;;;4.83;;
4272;SDS011;63887;53.656;9.810;2023-04-01T10:36:32;5.00;;;5.00;;
4272;SDS011;63887;53.656;9.810;2023-04-01T10:42:33;6.27;;;6.07;;
4272;SDS011;63887;53.656;9.810;2023-04-01T10:45:24;4.40;;;4.40;;
4272;SDS011;63887;53.656;9.810;2023-04-01T10:48:24;5.10;;;5.00;;
4272;SDS011;63887;53.656;9.810;2023-04-01T10:51:12;5.20;;;5.10;;
4272;SDS011;63887;53.656;9.810;2023-04-01T10:53:59;4.90;;;4.80;;
4272;SDS011;63887;53.656;9.810;2023-04-01T10:56:46;5.23;;;5.13;;
4272;SDS011;63887;53.656;9.810;2023-04-01T11:17:57;5.93;;;5.73;;
4272;SDS011;63887;53.656;9.810;2023-04-01T11:20:56;6.47;;;6.20;;
4272;SDS011;63887;53.656;9.810;2023-04-01T11:23:53;5.63;;;5.43;;
4272;SDS011;63887;53.656;9.810;2023-04-01T11:26:32;6.53;;;6.10;;
4272;SDS011;63887;53.656;9.810;2023-04-01T11:29:11;6.90;;;6.63;;
4272;SDS011;63887;53.656;9.810;2023-04-01T11:31:52;7.37;;;6.97;;
4272;SDS011;63887;53.656;9.810;2023-04-01T11:34:29;7.87;;;7.53;;
4272;SDS011;63887;53.656;9.810;2023-04-01T11:37:06;7.60;;;7.27;;
4272;SDS011;63887;53.656;9.810;2023-04-01T11:39:48;7.20;;;6.90;;
4272;SDS011;63887;53.656;9.810;2023-04-01T11:42:24;6.43;;;6.13;;
4272;SDS011;63887;53.656;9.810;2023-04-01T11:45:06;7.70;;;7.40;;
4272;SDS011;63887;53.656;9.810;2023-04-01T11:47:52;7.73;;;7.50;;
4272;SDS011;63887;53.656;9.810;2023-04-01T11:50:32;7.87;;;7.57;;
4272;SDS011;63887;53.656;9.810;2023-04-01T11:53:14;8.63;;;7.83;;
4272;SDS011;63887;53.656;9.810;2023-04-01T11:55:54;8.07;;;7.67;;
4272;SDS011;63887;53.656;9.810;2023-04-01T11:58:36;11.70;;;9.27;;
4272;SDS011;63887;53.656;9.810;2023-04-01T12:01:31;9.70;;;8.80;;
4272;SDS011;63887;53.656;9.810;2023-04-01T12:04:16;9.70;;;9.00;;
4272;SDS011;63887;53.656;9.810;2023-04-01T12:06:55;10.60;;;9.60;;
4272;SDS011;63887;53.656;9.810;2023-04-01T12:09:30;9.13;;;8.63;;
4272;SDS011;63887;53.656;9.810;2023-04-01T12:12:08;17.43;;;9.87;;
4272;SDS011;63887;53.656;9.810;2023-04-01T12:14:43;9.40;;;8.60;;
4272;SDS011;63887;53.656;9.810;2023-04-01T12:17:34;8.63;;;8.03;;
4272;SDS011;63887;53.656;9.810;2023-04-01T12:20:21;7.30;;;7.10;;
4272;SDS011;63887;53.656;9.810;2023-04-01T12:22:54;9.00;;;8.40;;
4272;SDS011;63887;53.656;9.810;2023-04-01T12:25:35;9.60;;;9.10;;
4272;SDS011;63887;53.656;9.810;2023-04-01T12:28:18;8.80;;;8.40;;
4272;SDS011;63887;53.656;9.810;2023-04-01T12:30:51;8.83;;;8.33;;
4272;SDS011;63887;53.656;9.810;2023-04-01T12:33:45;9.52;;;8.40;;
4272;SDS011;63887;53.656;9.810;2023-04-01T12:36:19;9.30;;;8.47;;
4272;SDS011;63887;53.656;9.810;2023-04-01T12:39:11;9.17;;;8.57;;
4272;SDS011;63887;53.656;9.810;2023-04-01T12:41:49;8.40;;;8.10;;
4272;SDS011;63887;53.656;9.810;2023-04-01T12:44:33;10.68;;;9.77;;
4272;SDS011;63887;53.656;9.810;2023-04-01T12:53:09;11.02;;;10.00;;
4272;SDS011;63887;53.656;9.810;2023-04-01T12:55:47;9.50;;;8.77;;
4272;SDS011;63887;53.656;9.810;2023-04-01T12:58:42;9.75;;;8.85;;
4272;SDS011;63887;53.656;9.810;2023-04-01T13:01:27;10.07;;;9.00;;
4272;SDS011;63887;53.656;9.810;2023-04-01T13:04:13;10.40;;;9.77;;
4272;SDS011;63887;53.656;9.810;2023-04-01T13:07:13;9.75;;;9.00;;
4272;SDS011;63887;53.656;9.810;2023-04-01T13:09:51;9.23;;;8.35;;
4272;SDS011;63887;53.656;9.810;2023-04-01T13:12:33;10.40;;;9.53;;
4272;SDS011;63887;53.656;9.810;2023-04-01T13:15:11;14.80;;;9.60;;
4272;SDS011;63887;53.656;9.810;2023-04-01T13:17:49;10.90;;;8.83;;
4272;SDS011;63887;53.656;9.810;2023-04-01T13:20:22;10.00;;;9.10;;
4272;SDS011;63887;53.656;9.810;2023-04-01T13:23:04;14.30;;;9.53;;
4272;SDS011;63887;53.656;9.810;2023-04-01T13:25:39;10.37;;;9.20;;
4272;SDS011;63887;53.656;9.810;2023-04-01T13:28:15;10.15;;;9.48;;
4272;SDS011;63887;53.656;9.810;2023-04-01T13:30:46;18.95;;;10.52;;
4272;SDS011;63887;53.656;9.810;2023-04-01T13:33:20;13.48;;;9.32;;
4272;SDS011;63887;53.656;9.810;2023-04-01T13:35:56;9.45;;;8.75;;
4272;SDS011;63887;53.656;9.810;2023-04-01T13:41:43;9.77;;;8.80;;
4272;SDS011;63887;53.656;9.810;2023-04-01T13:44:22;9.15;;;8.32;;
4272;SDS011;63887;53.656;9.810;2023-04-01T13:49:57;13.43;;;8.45;;
4272;SDS011;63887;53.656;9.810;2023-04-01T13:52:47;8.80;;;7.95;;
4272;SDS011;63887;53.656;9.810;2023-04-01T13:55:31;10.95;;;10.13;;
4272;SDS011;63887;53.656;9.810;2023-04-01T13:58:16;8.80;;;7.95;;
4272;SDS011;63887;53.656;9.810;2023-04-01T14:00:54;8.13;;;7.63;;
4272;SDS011;63887;53.656;9.810;2023-04-01T14:03:32;11.13;;;8.70;;
4272;SDS011;63887;53.656;9.810;2023-04-01T14:06:13;12.13;;;8.80;;
4272;SDS011;63887;53.656;9.810;2023-04-01T14:09:05;11.10;;;8.27;;
4272;SDS011;63887;53.656;9.810;2023-04-01T14:11:47;8.53;;;7.80;;
4272;SDS011;63887;53.656;9.810;2023-04-01T14:14:23;9.32;;;8.50;;
4272;SDS011;63887;53.656;9.810;2023-04-01T14:17:07;19.27;;;9.32;;
4272;SDS011;63887;53.656;9.810;2023-04-01T14:22:54;20.23;;;9.50;;
4272;SDS011;63887;53.656;9.810;2023-04-01T14:25:41;12.03;;;8.50;;
4272;SDS011;63887;53.656;9.810;2023-04-01T14:28:29;9.87;;;9.03;;
4272;SDS011;63887;53.656;9.810;2023-04-01T14:31:11;10.23;;;9.30;;
4272;SDS011;63887;53.656;9.810;2023-04-01T14:33:58;11.15;;;9.55;;
4272;SDS011;63887;53.656;9.810;2023-04-01T14:36:35;11.57;;;10.45;;
4272;SDS011;63887;53.656;9.810;2023-04-01T14:39:15;15.02;;;10.48;;
4272;SDS011;63887;53.656;9.810;2023-04-01T14:41:58;10.77;;;9.43;;
4272;SDS011;63887;53.656;9.810;2023-04-01T14:44:48;11.35;;;10.05;;
4272;SDS011;63887;53.656;9.810;2023-04-01T14:47:28;11.53;;;10.53;;
4272;SDS011;63887;53.656;9.810;2023-04-01T14:50:09;9.82;;;9.10;;
4272;SDS011;63887;53.656;9.810;2023-04-01T14:52:40;12.07;;;10.35;;
4272;SDS011;63887;53.656;9.810;2023-04-01T14:55:27;12.82;;;9.68;;
4272;SDS011;63887;53.656;9.810;2023-04-01T14:57:58;11.85;;;10.68;;
4272;SDS011;63887;53.656;9.810;2023-04-01T15:00:36;10.27;;;9.50;;
4272;SDS011;63887;53.656;9.810;2023-04-01T15:03:23;8.75;;;8.02;;
4272;SDS011;63887;53.656;9.810;2023-04-01T15:05:55;12.77;;;10.50;;
4272;SDS011;63887;53.656;9.810;2023-04-01T15:08:31;10.68;;;9.68;;
4272;SDS011;63887;53.656;9.810;2023-04-01T15:11:11;10.75;;;9.73;;
4272;SDS011;63887;53.656;9.810;2023-04-01T15:13:57;9.55;;;8.80;;
4272;SDS011;63887;53.656;9.810;2023-04-01T15:16:36;15.45;;;9.68;;
4272;SDS011;63887;53.656;9.810;2023-04-01T15:19:14;9.50;;;8.80;;
4272;SDS011;63887;53.656;9.810;2023-04-01T15:21:59;9.85;;;9.13;;
4272;SDS011;63887;53.656;9.810;2023-04-01T15:25:04;11.10;;;10.23;;
4272;SDS011;63887;53.656;9.810;2023-04-01T15:27:42;13.77;;;10.60;;
4272;SDS011;63887;53.656;9.810;2023-04-01T15:30:24;10.82;;;10.05;;
4272;SDS011;63887;53.656;9.810;2023-04-01T15:36:04;12.60;;;10.40;;
4272;SDS011;63887;53.656;9.810;2023-04-01T15:38:40;11.18;;;10.27;;
4272;SDS011;63887;53.656;9.810;2023-04-01T15:41:15;18.98;;;10.95;;
4272;SDS011;63887;53.656;9.810;2023-04-01T15:43:43;15.18;;;11.18;;
4272;SDS011;63887;53.656;9.810;2023-04-01T15:49:13;18.30;;;10.40;;
4272;SDS011;63887;53.656;9.810;2023-04-01T15:51:48;13.77;;;10.70;;
4272;SDS011;63887;53.656;9.810;2023-04-01T15:54:51;12.52;;;10.65;;
4272;SDS011;63887;53.656;9.810;2023-04-01T15:57:39;14.43;;;11.20;;
4272;SDS011;63887;53.656;9.810;2023-04-01T16:00:25;19.70;;;11.05;;
4272;SDS011;63887;53.656;9.810;2023-04-01T16:03:00;13.20;;;10.88;;
4272;SDS011;63887;53.656;9.810;2023-04-01T16:05:44;13.38;;;11.20;;
4272;SDS011;63887;53.656;9.810;2023-04-01T16:08:37;18.55;;;15.38;;
4272;SDS011;63887;53.656;9.810;2023-04-01T16:11:23;39.80;;;21.65;;
4272;SDS011;63887;53.656;9.810;2023-04-01T16:14:05;16.47;;;13.30;;
4272;SDS011;63887;53.656;9.810;2023-04-01T16:16:45;20.38;;;13.40;;
4272;SDS011;63887;53.656;9.810;2023-04-01T16:19:23;23.65;;;15.20;;
4272;SDS011;63887;53.656;9.810;2023-04-01T16:22:01;21.52;;;15.20;;
4272;SDS011;63887;53.656;9.810;2023-04-01T16:24:32;25.48;;;15.23;;
4272;SDS011;63887;53.656;9.810;2023-04-01T16:27:04;20.48;;;13.05;;
4272;SDS011;63887;53.656;9.810;2023-04-01T16:29:40;13.77;;;11.95;;
4272;SDS011;63887;53.656;9.810;2023-04-01T16:32:21;12.18;;;10.88;;
4272;SDS011;63887;53.656;9.810;2023-04-01T16:34:56;12.73;;;11.48;;
4272;SDS011;63887;53.656;9.810;2023-04-01T16:37:33;29.73;;;11.45;;
4272;SDS011;63887;53.656;9.810;2023-04-01T16:40:09;15.85;;;12.43;;
4272;SDS011;63887;53.656;9.810;2023-04-01T16:42:43;16.15;;;12.02;;
4272;SDS011;63887;53.656;9.810;2023-04-01T16:45:17;12.82;;;11.73;;
4272;SDS011;63887;53.656;9.810;2023-04-01T16:47:53;16.70;;;12.25;;
4272;SDS011;63887;53.656;9.810;2023-04-01T16:50:22;16.67;;;13.27;;